Carlyle, Illinois
Current Conditions -  °F | °C
As of 4:55 PM on Tuesday 21 Oct 2014 (Local Time) from KENL Reporting Station
Clear Clear  
Wind Chill: 63°   Ceiling: Unl
Heat Index: 63°   Visibility: 10mi
Dew Point: 41°   Wind: 8mph
Humidity: 44%   Direction: 10°N
Pressure: 30.11"   Gusts: NA
Location:  38.61°N, 89.37°W
Report Text: KENL 212155Z AUTO 01007KT 10SM CLR 17/05 A3011 RMK AO2 T01730049
Loading
Personal Weather Stations






























Interactive Weather Map
Tropical Storm Tracking
New forecast layout! Learn more

10-Day Weather Forecast

Advertisements
Track Severe Weather on mobile